createdAt,value
2019-03-03T00:03:39.863Z,58.60
2019-03-03T00:08:45.215Z,59.30
2019-03-03T00:13:50.587Z,60.30
2019-03-03T00:18:55.948Z,62.00
2019-03-03T00:24:02.646Z,62.30
2019-03-03T00:29:08.003Z,61.20
2019-03-03T00:34:13.400Z,59.40
2019-03-03T00:39:20.452Z,60.00
2019-03-03T00:44:30.211Z,59.50
2019-03-03T00:49:39.953Z,59.40
2019-03-03T00:54:59.323Z,59.50
2019-03-03T01:00:09.468Z,61.70
2019-03-03T01:05:16.748Z,60.00
2019-03-03T01:10:26.816Z,60.70
2019-03-03T01:15:39.834Z,60.80
2019-03-03T01:21:01.866Z,59.50
2019-03-03T01:26:07.358Z,59.80
2019-03-03T01:31:12.850Z,58.80
2019-03-03T01:36:18.190Z,60.00
2019-03-03T01:41:23.618Z,58.70
2019-03-03T01:46:29.046Z,57.80
2019-03-03T01:51:34.474Z,58.50
2019-03-03T01:56:39.828Z,60.50
2019-03-03T02:01:45.323Z,62.70
2019-03-03T02:06:50.655Z,62.40
2019-03-03T02:11:56.270Z,62.60
2019-03-03T02:17:01.626Z,63.10
2019-03-03T02:22:07.228Z,63.50
2019-03-03T02:27:12.710Z,65.00
2019-03-03T02:32:18.129Z,64.90
2019-03-03T02:37:23.553Z,65.20
2019-03-03T02:42:28.972Z,65.60
2019-03-03T02:47:34.341Z,66.40
2019-03-03T02:52:39.844Z,65.00
2019-03-03T02:57:45.392Z,64.30
2019-03-03T03:02:52.172Z,61.20
2019-03-03T03:08:01.976Z,62.40
2019-03-03T03:13:21.177Z,62.30
2019-03-03T03:18:34.143Z,62.20
2019-03-03T03:23:41.282Z,61.60
2019-03-03T03:29:04.453Z,60.60
2019-03-03T03:34:14.409Z,60.10
2019-03-03T03:39:21.468Z,60.20
2019-03-03T03:44:28.539Z,59.40
2019-03-03T03:49:35.530Z,59.40
2019-03-03T03:54:48.826Z,59.70
2019-03-03T04:00:02.168Z,59.90
2019-03-03T04:05:10.554Z,59.40
2019-03-03T04:10:18.587Z,59.60
2019-03-03T04:15:32.248Z,59.50
2019-03-03T04:20:55.350Z,58.40
2019-03-03T04:26:11.436Z,58.70
2019-03-03T04:31:18.500Z,59.00
2019-03-03T04:36:25.483Z,58.90
2019-03-03T04:41:35.131Z,60.10
2019-03-03T04:46:42.132Z,61.60
2019-03-03T04:51:52.016Z,61.40
2019-03-03T04:57:01.831Z,61.00
2019-03-03T05:02:14.979Z,60.40
2019-03-03T05:07:31.240Z,61.60
2019-03-03T05:12:53.120Z,63.90
2019-03-03T05:18:00.271Z,64.50
2019-03-03T05:23:07.081Z,64.70
2019-03-03T05:28:12.596Z,63.40
2019-03-03T05:33:17.957Z,62.50
2019-03-03T05:38:23.388Z,60.40
2019-03-03T05:43:28.851Z,61.20
2019-03-03T05:48:34.567Z,60.30
2019-03-03T05:53:40.703Z,59.30
2019-03-03T05:58:46.140Z,59.50
2019-03-03T06:03:51.582Z,59.00
2019-03-03T06:08:57.771Z,58.80
2019-03-03T06:14:03.511Z,59.30
2019-03-03T06:19:08.995Z,59.40
2019-03-03T06:24:15.638Z,60.00
2019-03-03T06:29:21.085Z,59.40
2019-03-03T06:34:26.499Z,59.00
2019-03-03T06:39:32.123Z,57.50
2019-03-03T06:44:37.651Z,57.50
2019-03-03T06:49:43.097Z,57.30
2019-03-03T06:54:48.512Z,57.50
2019-03-03T06:59:53.851Z,56.70
2019-03-03T07:04:59.178Z,59.10
2019-03-03T07:10:06.430Z,60.10
2019-03-03T07:15:14.172Z,60.70
2019-03-03T07:20:19.719Z,59.60
2019-03-03T07:25:25.288Z,58.40
2019-03-03T07:30:30.726Z,58.00
2019-03-03T07:35:36.173Z,54.10
2019-03-03T07:40:42.095Z,55.10
2019-03-03T07:45:48.528Z,56.80
2019-03-03T07:50:54.046Z,56.60
2019-03-03T07:55:59.493Z,55.20
2019-03-03T08:01:04.979Z,56.40
2019-03-03T08:06:10.403Z,57.30
2019-03-03T08:11:15.886Z,58.70
2019-03-03T08:16:21.307Z,58.70
2019-03-03T08:21:27.792Z,57.90
2019-03-03T08:26:33.284Z,57.10
2019-03-03T08:31:38.708Z,57.30
2019-03-03T08:36:45.203Z,56.40
2019-03-03T08:41:52.359Z,55.60
2019-03-03T08:46:59.737Z,55.30
2019-03-03T08:52:09.963Z,54.20
2019-03-03T08:57:16.970Z,55.40
2019-03-03T09:02:35.993Z,56.00
2019-03-03T09:07:47.353Z,56.40
2019-03-03T09:12:54.432Z,57.10
2019-03-03T09:18:17.941Z,58.40
2019-03-03T09:23:25.007Z,58.10
2019-03-03T09:28:31.994Z,57.70
2019-03-03T09:33:42.229Z,57.80
2019-03-03T09:39:05.620Z,57.60
2019-03-03T09:44:32.042Z,59.10
2019-03-03T09:49:55.730Z,62.40
2019-03-03T09:55:11.923Z,64.80
2019-03-03T10:00:21.958Z,64.00
2019-03-03T10:05:34.827Z,65.90
2019-03-03T10:10:54.303Z,67.30
2019-03-03T10:16:07.279Z,70.70
2019-03-03T10:21:26.599Z,69.20
2019-03-03T10:26:36.658Z,65.10
2019-03-03T10:31:59.840Z,64.50
2019-03-03T10:37:09.942Z,66.20
2019-03-03T10:42:20.004Z,69.30
2019-03-03T10:47:32.976Z,72.30
2019-03-03T10:52:52.309Z,75.50
2019-03-03T10:58:16.923Z,76.80
2019-03-03T11:03:38.815Z,72.90
2019-03-03T11:08:45.888Z,74.00
2019-03-03T11:14:01.806Z,72.20
2019-03-03T11:19:08.980Z,72.30
2019-03-03T11:24:32.436Z,70.80
2019-03-03T11:29:55.026Z,70.00
2019-03-03T11:35:02.103Z,68.90
2019-03-03T11:40:12.159Z,72.30
2019-03-03T11:45:34.283Z,68.90
2019-03-03T11:50:43.746Z,69.50
2019-03-03T11:55:50.848Z,68.30
2019-03-03T12:01:00.379Z,69.40
2019-03-03T12:06:13.252Z,68.80
2019-03-03T12:11:22.964Z,67.00
2019-03-03T12:16:48.464Z,63.20
2019-03-03T12:21:56.575Z,63.00
2019-03-03T12:27:03.551Z,63.20
2019-03-03T12:32:19.198Z,62.40
2019-03-03T12:37:28.947Z,63.70
2019-03-03T12:42:38.782Z,65.40
2019-03-03T12:48:02.251Z,65.50
2019-03-03T12:53:21.708Z,65.00
2019-03-03T12:58:40.784Z,63.80
2019-03-03T13:03:50.578Z,62.20
2019-03-03T13:09:00.772Z,61.50
2019-03-03T13:14:24.655Z,61.20
2019-03-03T13:19:32.004Z,60.80
2019-03-03T13:24:40.563Z,59.80
2019-03-03T13:30:04.614Z,61.20
2019-03-03T13:35:11.862Z,61.90
2019-03-03T13:40:24.947Z,61.00
2019-03-03T13:45:32.470Z,60.00
2019-03-03T13:50:38.027Z,60.40
2019-03-03T13:55:43.451Z,59.70
2019-03-03T14:00:48.954Z,59.30
2019-03-03T14:05:54.458Z,57.00
2019-03-03T14:10:59.874Z,57.60
2019-03-03T14:16:05.319Z,57.20
2019-03-03T14:21:10.655Z,56.40
2019-03-03T14:26:16.985Z,57.40
2019-03-03T14:31:22.492Z,57.80
2019-03-03T14:36:27.996Z,57.80
2019-03-03T14:41:33.500Z,56.80
2019-03-03T14:46:41.689Z,56.40
2019-03-03T14:51:47.054Z,56.00
2019-03-03T14:56:52.448Z,57.70
2019-03-03T15:01:57.871Z,57.50
2019-03-03T15:07:03.314Z,57.90
2019-03-03T15:12:08.807Z,55.80
2019-03-03T15:17:14.564Z,57.10
2019-03-03T15:22:20.129Z,58.30
2019-03-03T15:27:25.464Z,58.90
2019-03-03T15:32:30.885Z,58.20
2019-03-03T15:37:38.352Z,58.10
2019-03-03T15:42:44.398Z,58.60
2019-03-03T15:47:49.814Z,57.80
2019-03-03T15:52:55.225Z,58.60
2019-03-03T15:58:00.638Z,59.20
2019-03-03T16:03:06.419Z,59.50
2019-03-03T16:08:11.835Z,60.00
2019-03-03T16:13:17.242Z,59.40
2019-03-03T16:18:23.470Z,59.20
2019-03-03T16:23:28.870Z,60.20
2019-03-03T16:28:34.264Z,59.50
2019-03-03T16:33:39.675Z,59.00
2019-03-03T16:38:45.084Z,59.60
2019-03-03T16:43:50.638Z,59.70
2019-03-03T16:48:56.070Z,59.60
2019-03-03T16:54:02.372Z,59.60
2019-03-03T16:59:08.132Z,59.60
2019-03-03T17:04:13.541Z,59.80
2019-03-03T17:09:18.892Z,60.20
2019-03-03T17:14:24.382Z,63.10
2019-03-03T17:19:29.856Z,65.80
2019-03-03T17:24:35.421Z,67.70
2019-03-03T17:29:40.785Z,69.10
2019-03-03T17:34:46.199Z,68.40
2019-03-03T17:39:51.544Z,67.40
2019-03-03T17:44:57.553Z,68.20
2019-03-03T17:50:03.441Z,70.10
2019-03-03T17:55:10.400Z,70.80
2019-03-03T18:00:25.247Z,71.20
2019-03-03T18:05:30.810Z,70.00
2019-03-03T18:10:36.344Z,70.00
2019-03-03T18:15:41.760Z,69.20
2019-03-03T18:20:47.247Z,68.00
2019-03-03T18:25:52.660Z,68.50
2019-03-03T18:30:58.031Z,68.40
2019-03-03T18:36:03.446Z,68.60
2019-03-03T18:41:08.858Z,68.60
2019-03-03T18:46:15.347Z,67.40
2019-03-03T18:51:20.754Z,68.00
2019-03-03T18:56:26.100Z,67.90
2019-03-03T19:01:31.455Z,69.80
2019-03-03T19:06:36.916Z,69.60
2019-03-03T19:11:42.388Z,67.40
2019-03-03T19:16:47.816Z,67.00
2019-03-03T19:21:53.227Z,66.70
2019-03-03T19:26:58.659Z,66.90
2019-03-03T19:32:04.088Z,66.70
2019-03-03T19:37:09.746Z,65.60
2019-03-03T19:42:15.374Z,64.80
2019-03-03T19:47:20.932Z,64.90
2019-03-03T19:52:26.501Z,64.90
2019-03-03T19:57:33.037Z,65.60
2019-03-03T20:02:38.531Z,66.20
2019-03-03T20:07:44.421Z,65.90
2019-03-03T20:12:49.961Z,67.20
2019-03-03T20:17:55.382Z,66.80
2019-03-03T20:23:02.170Z,67.30
2019-03-03T20:28:08.906Z,67.80
2019-03-03T20:33:14.460Z,68.30
2019-03-03T20:38:19.865Z,69.80
2019-03-03T20:43:37.156Z,71.60
2019-03-03T20:48:42.612Z,74.60
2019-03-03T20:53:48.028Z,76.80
2019-03-03T20:58:54.111Z,78.00
2019-03-03T21:03:59.614Z,77.60
2019-03-03T21:09:06.712Z,76.80
2019-03-03T21:14:13.671Z,77.00
2019-03-03T21:19:19.161Z,74.80
2019-03-03T21:24:24.661Z,73.70
2019-03-03T21:29:30.803Z,72.60
2019-03-03T21:34:36.212Z,72.60
2019-03-03T21:39:41.556Z,71.50
2019-03-03T21:44:47.048Z,70.10
2019-03-03T21:49:52.473Z,69.30
2019-03-03T21:54:57.945Z,69.70
2019-03-03T22:00:25.484Z,68.90
2019-03-03T22:05:30.988Z,69.10
2019-03-03T22:10:36.415Z,67.60
2019-03-03T22:15:41.980Z,67.00
2019-03-03T22:20:47.430Z,66.20
2019-03-03T22:25:52.914Z,66.60
2019-03-03T22:30:58.305Z,66.60
2019-03-03T22:36:05.228Z,67.50
2019-03-03T22:41:11.699Z,68.20
2019-03-03T22:46:17.051Z,68.00
2019-03-03T22:51:22.390Z,68.50
2019-03-03T22:56:27.731Z,68.10
2019-03-03T23:01:33.706Z,68.60
2019-03-03T23:06:42.219Z,68.10
2019-03-03T23:11:50.643Z,68.20
2019-03-03T23:17:10.995Z,68.30
2019-03-03T23:22:25.386Z,68.40
2019-03-03T23:27:30.761Z,69.10
2019-03-03T23:32:36.285Z,69.60
2019-03-03T23:37:41.613Z,70.20
2019-03-03T23:42:47.011Z,70.00
2019-03-03T23:47:52.360Z,70.00
2019-03-03T23:52:57.778Z,69.50
2019-03-03T23:58:03.205Z,68.90
